sensor_id;sensor_type;location;lat;lon;timestamp;pressure;altitude;pressure_sealevel;temperature;humidity
10093;BME280;5085;48.092;11.484;2023-03-04T00:01:55;95475.66;;;0.44;100.00
10093;BME280;5085;48.092;11.484;2023-03-04T00:04:21;95482.56;;;0.45;100.00
10093;BME280;5085;48.092;11.484;2023-03-04T00:06:47;95481.53;;;0.46;100.00
10093;BME280;5085;48.092;11.484;2023-03-04T00:09:13;95484.00;;;0.48;100.00
10093;BME280;5085;48.092;11.484;2023-03-04T00:11:39;95477.28;;;0.45;100.00
10093;BME280;5085;48.092;11.484;2023-03-04T00:14:05;95486.66;;;0.48;100.00
10093;BME280;5085;48.092;11.484;2023-03-04T00:16:31;95486.25;;;0.44;100.00
10093;BME280;5085;48.092;11.484;2023-03-04T00:18:57;95487.06;;;0.45;100.00
10093;BME280;5085;48.092;11.484;2023-03-04T00:21:23;95481.16;;;0.43;100.00
10093;BME280;5085;48.092;11.484;2023-03-04T00:23:52;95486.66;;;0.41;100.00
10093;BME280;5085;48.092;11.484;2023-03-04T00:26:24;95487.66;;;0.40;100.00
10093;BME280;5085;48.092;11.484;2023-03-04T00:28:50;95487.06;;;0.38;100.00
10093;BME280;5085;48.092;11.484;2023-03-04T00:31:16;95489.09;;;0.36;100.00
10093;BME280;5085;48.092;11.484;2023-03-04T00:33:42;95491.13;;;0.34;100.00
10093;BME280;5085;48.092;11.484;2023-03-04T00:36:09;95491.53;;;0.31;100.00
10093;BME280;5085;48.092;11.484;2023-03-04T00:38:38;95483.78;;;0.30;100.00
10093;BME280;5085;48.092;11.484;2023-03-04T00:41:04;95489.91;;;0.30;100.00
10093;BME280;5085;48.092;11.484;2023-03-04T00:43:30;95489.91;;;0.30;100.00
10093;BME280;5085;48.092;11.484;2023-03-04T00:45:56;95490.31;;;0.27;100.00
10093;BME280;5085;48.092;11.484;2023-03-04T00:48:23;95489.66;;;0.25;100.00
10093;BME280;5085;48.092;11.484;2023-03-04T00:50:49;95493.34;;;0.24;100.00
10093;BME280;5085;48.092;11.484;2023-03-04T00:53:20;95490.91;;;0.22;100.00
10093;BME280;5085;48.092;11.484;2023-03-04T00:55:46;95488.44;;;0.21;100.00
10093;BME280;5085;48.092;11.484;2023-03-04T00:58:12;95493.75;;;0.21;100.00
10093;BME280;5085;48.092;11.484;2023-03-04T01:00:38;95486.41;;;0.16;100.00
10093;BME280;5085;48.092;11.484;2023-03-04T01:03:04;95488.22;;;0.16;100.00
10093;BME280;5085;48.092;11.484;2023-03-04T01:05:30;95491.91;;;0.15;100.00
10093;BME280;5085;48.092;11.484;2023-03-04T01:07:59;95482.53;;;0.12;100.00
10093;BME280;5085;48.092;11.484;2023-03-04T01:10:27;95477.84;;;0.08;100.00
10093;BME280;5085;48.092;11.484;2023-03-04T01:12:59;95474.38;;;0.07;100.00
10093;BME280;5085;48.092;11.484;2023-03-04T01:15:26;95477.84;;;0.08;100.00
10093;BME280;5085;48.092;11.484;2023-03-04T01:17:52;95469.88;;;0.08;100.00
10093;BME280;5085;48.092;11.484;2023-03-04T01:20:18;95472.53;;;0.08;100.00
10093;BME280;5085;48.092;11.484;2023-03-04T01:22:44;95472.53;;;0.08;100.00
10093;BME280;5085;48.092;11.484;2023-03-04T01:25:10;95471.94;;;0.06;100.00
10093;BME280;5085;48.092;11.484;2023-03-04T01:27:36;95461.53;;;0.04;100.00
10093;BME280;5085;48.092;11.484;2023-03-04T01:30:03;95461.75;;;0.03;100.00
10093;BME280;5085;48.092;11.484;2023-03-04T01:32:32;95459.09;;;0.03;100.00
10093;BME280;5085;48.092;11.484;2023-03-04T01:34:58;95464.59;;;0.01;100.00
10093;BME280;5085;48.092;11.484;2023-03-04T01:37:24;95461.13;;;0.01;100.00
10093;BME280;5085;48.092;11.484;2023-03-04T01:39:50;95464.59;;;0.01;100.00
10093;BME280;5085;48.092;11.484;2023-03-04T01:42:19;95459.31;;;0.01;100.00
10093;BME280;5085;48.092;11.484;2023-03-04T01:44:47;95460.72;;;0.04;100.00
10093;BME280;5085;48.092;11.484;2023-03-04T01:47:14;95447.47;;;0.04;100.00
10093;BME280;5085;48.092;11.484;2023-03-04T01:49:41;95457.06;;;0.05;100.00
10093;BME280;5085;48.092;11.484;2023-03-04T01:52:11;95446.88;;;0.02;100.00
10093;BME280;5085;48.092;11.484;2023-03-04T01:54:38;95441.81;;;0.00;100.00
10093;BME280;5085;48.092;11.484;2023-03-04T01:57:22;95443.00;;;-0.03;100.00
10093;BME280;5085;48.092;11.484;2023-03-04T02:02:39;95436.44;;;-0.13;100.00
10093;BME280;5085;48.092;11.484;2023-03-04T02:05:05;95434.41;;;-0.18;100.00
10093;BME280;5085;48.092;11.484;2023-03-04T02:07:32;95428.09;;;-0.23;100.00
10093;BME280;5085;48.092;11.484;2023-03-04T02:10:00;95434.59;;;-0.26;100.00
10093;BME280;5085;48.092;11.484;2023-03-04T02:12:29;95430.09;;;-0.32;100.00
10093;BME280;5085;48.092;11.484;2023-03-04T02:14:55;95431.53;;;-0.36;100.00
10093;BME280;5085;48.092;11.484;2023-03-04T02:17:28;95422.94;;;-0.38;100.00
10093;BME280;5085;48.092;11.484;2023-03-04T02:22:43;95421.53;;;-0.41;100.00
10093;BME280;5085;48.092;11.484;2023-03-04T02:25:19;95414.81;;;-0.43;100.00
10093;BME280;5085;48.092;11.484;2023-03-04T02:27:47;95416.84;;;-0.45;100.00
10093;BME280;5085;48.092;11.484;2023-03-04T02:30:16;95412.59;;;-0.46;100.00
10093;BME280;5085;48.092;11.484;2023-03-04T02:32:42;95407.47;;;-0.48;100.00
10093;BME280;5085;48.092;11.484;2023-03-04T02:35:15;95409.69;;;-0.52;100.00
10093;BME280;5085;48.092;11.484;2023-03-04T02:37:42;95407.25;;;-0.53;100.00
10093;BME280;5085;48.092;11.484;2023-03-04T02:40:29;95412.53;;;-0.53;100.00
10093;BME280;5085;48.092;11.484;2023-03-04T02:42:59;95412.75;;;-0.55;100.00
10093;BME280;5085;48.092;11.484;2023-03-04T02:45:41;95410.28;;;-0.56;100.00
10093;BME280;5085;48.092;11.484;2023-03-04T02:48:08;95414.75;;;-0.57;100.00
10093;BME280;5085;48.092;11.484;2023-03-04T02:50:41;95407.84;;;-0.58;100.00
10093;BME280;5085;48.092;11.484;2023-03-04T02:53:11;95413.97;;;-0.57;100.00
10093;BME280;5085;48.092;11.484;2023-03-04T02:55:38;95418.44;;;-0.58;100.00
10093;BME280;5085;48.092;11.484;2023-03-04T02:58:05;95413.34;;;-0.59;100.00
10093;BME280;5085;48.092;11.484;2023-03-04T03:00:31;95409.06;;;-0.60;100.00
10093;BME280;5085;48.092;11.484;2023-03-04T03:02:57;95406.19;;;-0.65;100.00
10093;BME280;5085;48.092;11.484;2023-03-04T03:05:26;95406.41;;;-0.67;100.00
10093;BME280;5085;48.092;11.484;2023-03-04T03:07:54;95407.59;;;-0.69;100.00
10093;BME280;5085;48.092;11.484;2023-03-04T03:10:20;95408.84;;;-0.72;100.00
10093;BME280;5085;48.092;11.484;2023-03-04T03:12:47;95412.28;;;-0.71;100.00
10093;BME280;5085;48.092;11.484;2023-03-04T03:15:13;95407.00;;;-0.71;100.00
10093;BME280;5085;48.092;11.484;2023-03-04T03:17:39;95408.84;;;-0.72;100.00
10093;BME280;5085;48.092;11.484;2023-03-04T03:20:06;95414.72;;;-0.70;100.00
10093;BME280;5085;48.092;11.484;2023-03-04T03:22:36;95411.06;;;-0.69;100.00
10093;BME280;5085;48.092;11.484;2023-03-04T03:25:04;95418.19;;;-0.69;100.00
10093;BME280;5085;48.092;11.484;2023-03-04T03:27:36;95414.72;;;-0.70;100.00
10093;BME280;5085;48.092;11.484;2023-03-04T03:30:03;95419.41;;;-0.72;100.00
10093;BME280;5085;48.092;11.484;2023-03-04T03:32:29;95422.06;;;-0.72;100.00
10093;BME280;5085;48.092;11.484;2023-03-04T03:34:55;95423.03;;;-0.73;100.00
10093;BME280;5085;48.092;11.484;2023-03-04T03:37:22;95430.53;;;-0.77;100.00
10093;BME280;5085;48.092;11.484;2023-03-04T03:39:48;95422.22;;;-0.80;100.00
10093;BME280;5085;48.092;11.484;2023-03-04T03:42:14;95415.47;;;-0.83;100.00
10093;BME280;5085;48.092;11.484;2023-03-04T03:44:40;95420.97;;;-0.84;100.00
10093;BME280;5085;48.092;11.484;2023-03-04T03:47:06;95418.91;;;-0.89;100.00
10093;BME280;5085;48.092;11.484;2023-03-04T03:49:32;95423.56;;;-0.91;100.00
10093;BME280;5085;48.092;11.484;2023-03-04T03:51:58;95417.84;;;-0.94;100.00
10093;BME280;5085;48.092;11.484;2023-03-04T03:54:24;95421.31;;;-0.94;100.00
10093;BME280;5085;48.092;11.484;2023-03-04T03:56:50;95417.84;;;-0.94;100.00
10093;BME280;5085;48.092;11.484;2023-03-04T03:59:16;95414.41;;;-0.95;100.00
10093;BME280;5085;48.092;11.484;2023-03-04T04:01:42;95417.84;;;-0.94;100.00
10093;BME280;5085;48.092;11.484;2023-03-04T04:04:08;95419.50;;;-0.93;100.00
10093;BME280;5085;48.092;11.484;2023-03-04T04:06:34;95417.84;;;-0.94;100.00
10093;BME280;5085;48.092;11.484;2023-03-04T04:09:00;95421.94;;;-0.92;100.00
10093;BME280;5085;48.092;11.484;2023-03-04T04:11:26;95423.38;;;-0.89;100.00
10093;BME280;5085;48.092;11.484;2023-03-04T04:13:52;95420.34;;;-0.86;100.00
10093;BME280;5085;48.092;11.484;2023-03-04T04:16:18;95415.25;;;-0.88;100.00
10093;BME280;5085;48.092;11.484;2023-03-04T04:18:44;95412.41;;;-0.86;100.00
10093;BME280;5085;48.092;11.484;2023-03-04T04:21:10;95413.03;;;-0.84;100.00
10093;BME280;5085;48.092;11.484;2023-03-04T04:23:40;95413.03;;;-0.84;100.00
10093;BME280;5085;48.092;11.484;2023-03-04T04:26:06;95410.41;;;-0.84;100.00
10093;BME280;5085;48.092;11.484;2023-03-04T04:28:32;95420.97;;;-0.84;100.00
10093;BME280;5085;48.092;11.484;2023-03-04T04:30:58;95417.53;;;-0.85;100.00
10093;BME280;5085;48.092;11.484;2023-03-04T04:33:25;95420.34;;;-0.86;100.00
10093;BME280;5085;48.092;11.484;2023-03-04T04:35:51;95419.53;;;-0.87;100.00
10093;BME280;5085;48.092;11.484;2023-03-04T04:38:17;95420.72;;;-0.89;100.00
10093;BME280;5085;48.092;11.484;2023-03-04T04:40:43;95414.84;;;-0.91;100.00
10093;BME280;5085;48.092;11.484;2023-03-04T04:43:12;95415.84;;;-0.92;100.00
10093;BME280;5085;48.092;11.484;2023-03-04T04:45:38;95413.59;;;-0.95;100.00
10093;BME280;5085;48.092;11.484;2023-03-04T04:48:04;95411.34;;;-0.98;100.00
10093;BME280;5085;48.092;11.484;2023-03-04T04:50:30;95414.19;;;-1.00;100.00
10093;BME280;5085;48.092;11.484;2023-03-04T04:52:59;95418.00;;;-1.03;100.00
10093;BME280;5085;48.092;11.484;2023-03-04T04:55:25;95412.94;;;-1.04;100.00
10093;BME280;5085;48.092;11.484;2023-03-04T04:57:57;95410.50;;;-1.06;100.00
10093;BME280;5085;48.092;11.484;2023-03-04T05:00:23;95418.44;;;-1.06;100.00
10093;BME280;5085;48.092;11.484;2023-03-04T05:02:59;95411.31;;;-1.05;100.00
10093;BME280;5085;48.092;11.484;2023-03-04T05:05:25;95409.47;;;-1.05;100.00
10093;BME280;5085;48.092;11.484;2023-03-04T05:07:51;95414.97;;;-1.06;100.00
10093;BME280;5085;48.092;11.484;2023-03-04T05:10:17;95417.78;;;-1.08;100.00
10093;BME280;5085;48.092;11.484;2023-03-04T05:12:43;95418.81;;;-1.09;100.00
10093;BME280;5085;48.092;11.484;2023-03-04T05:15:10;95423.47;;;-1.11;100.00
10093;BME280;5085;48.092;11.484;2023-03-04T05:17:36;95424.84;;;-1.15;100.00
10093;BME280;5085;48.092;11.484;2023-03-04T05:20:02;95419.16;;;-1.18;100.00
10093;BME280;5085;48.092;11.484;2023-03-04T05:22:29;95423.00;;;-1.21;100.00
10093;BME280;5085;48.092;11.484;2023-03-04T05:24:55;95420.56;;;-1.22;100.00
10093;BME280;5085;48.092;11.484;2023-03-04T05:27:25;95419.56;;;-1.21;100.00
10093;BME280;5085;48.092;11.484;2023-03-04T05:29:51;95413.63;;;-1.23;100.00
10093;BME280;5085;48.092;11.484;2023-03-04T05:32:17;95422.94;;;-1.28;100.00
10093;BME280;5085;48.092;11.484;2023-03-04T05:34:43;95423.53;;;-1.32;100.00
10093;BME280;5085;48.092;11.484;2023-03-04T05:37:12;95422.28;;;-1.36;100.00
10093;BME280;5085;48.092;11.484;2023-03-04T05:39:38;95422.50;;;-1.38;100.00
10093;BME280;5085;48.092;11.484;2023-03-04T05:42:07;95416.97;;;-1.43;100.00
10093;BME280;5085;48.092;11.484;2023-03-04T05:44:33;95419.19;;;-1.46;100.00
10093;BME280;5085;48.092;11.484;2023-03-04T05:46:59;95422.84;;;-1.47;100.00
10093;BME280;5085;48.092;11.484;2023-03-04T05:49:25;95418.56;;;-1.48;100.00
10093;BME280;5085;48.092;11.484;2023-03-04T05:51:51;95427.53;;;-1.43;100.00
10093;BME280;5085;48.092;11.484;2023-03-04T05:54:17;95424.09;;;-1.43;100.00
10093;BME280;5085;48.092;11.484;2023-03-04T05:56:49;95427.97;;;-1.39;100.00
10093;BME280;5085;48.092;11.484;2023-03-04T05:59:15;95421.31;;;-1.35;100.00
10093;BME280;5085;48.092;11.484;2023-03-04T06:01:48;95426.59;;;-1.29;100.00
10093;BME280;5085;48.092;11.484;2023-03-04T06:04:14;95426.22;;;-1.26;100.00
10093;BME280;5085;48.092;11.484;2023-03-04T06:06:40;95429.31;;;-1.22;100.00
10093;BME280;5085;48.092;11.484;2023-03-04T06:09:06;95437.66;;;-1.18;100.00
10093;BME280;5085;48.092;11.484;2023-03-04T06:11:32;95436.66;;;-1.17;100.00
10093;BME280;5085;48.092;11.484;2023-03-04T06:13:58;95440.91;;;-1.16;100.00
10093;BME280;5085;48.092;11.484;2023-03-04T06:16:24;95437.88;;;-1.13;100.00
10093;BME280;5085;48.092;11.484;2023-03-04T06:18:50;95435.25;;;-1.13;100.00
10093;BME280;5085;48.092;11.484;2023-03-04T06:21:16;95450.50;;;-1.09;100.00
10093;BME280;5085;48.092;11.484;2023-03-04T06:23:43;95451.13;;;-1.07;100.00
10093;BME280;5085;48.092;11.484;2023-03-04T06:26:16;95451.75;;;-1.05;100.00
10093;BME280;5085;48.092;11.484;2023-03-04T06:28:42;95453.00;;;-1.01;100.00
10093;BME280;5085;48.092;11.484;2023-03-04T06:31:09;95453.88;;;-0.93;100.00
10093;BME280;5085;48.092;11.484;2023-03-04T06:33:35;95461.81;;;-0.87;100.00
10093;BME280;5085;48.092;11.484;2023-03-04T06:36:01;95462.47;;;-0.78;100.00
10093;BME280;5085;48.092;11.484;2023-03-04T06:38:27;95450.13;;;-0.71;100.00
10093;BME280;5085;48.092;11.484;2023-03-04T06:40:54;95462.34;;;-0.63;100.00
10093;BME280;5085;48.092;11.484;2023-03-04T06:43:20;95458.69;;;-0.56;100.00
10093;BME280;5085;48.092;11.484;2023-03-04T06:45:49;95456.69;;;-0.47;100.00
10093;BME280;5085;48.092;11.484;2023-03-04T06:48:15;95456.75;;;-0.40;100.00
10093;BME280;5085;48.092;11.484;2023-03-04T06:50:45;95459.41;;;-0.34;100.00
10093;BME280;5085;48.092;11.484;2023-03-04T06:53:11;95458.22;;;-0.24;100.00
10093;BME280;5085;48.092;11.484;2023-03-04T06:55:37;95459.03;;;-0.17;100.00
10093;BME280;5085;48.092;11.484;2023-03-04T06:58:03;95456.84;;;-0.07;100.00
10093;BME280;5085;48.092;11.484;2023-03-04T07:00:29;95464.59;;;0.01;100.00
10093;BME280;5085;48.092;11.484;2023-03-04T07:02:57;95473.16;;;0.10;100.00
10093;BME280;5085;48.092;11.484;2023-03-04T07:05:23;95470.31;;;0.24;100.00
10093;BME280;5085;48.092;11.484;2023-03-04T07:07:49;95477.06;;;0.40;100.00
10093;BME280;5085;48.092;11.484;2023-03-04T07:10:17;95466.69;;;0.59;100.00
10093;BME280;5085;48.092;11.484;2023-03-04T07:12:43;95478.50;;;0.83;100.00
10093;BME280;5085;48.092;11.484;2023-03-04T07:15:12;95474.41;;;1.07;100.00
10093;BME280;5085;48.092;11.484;2023-03-04T07:17:38;95477.81;;;1.27;100.00
10093;BME280;5085;48.092;11.484;2023-03-04T07:20:05;95479.78;;;1.52;100.00
10093;BME280;5085;48.092;11.484;2023-03-04T07:22:31;95476.66;;;1.74;100.00
10093;BME280;5085;48.092;11.484;2023-03-04T07:24:57;95487.56;;;1.98;100.00
10093;BME280;5085;48.092;11.484;2023-03-04T07:27:23;95487.22;;;2.26;100.00
10093;BME280;5085;48.092;11.484;2023-03-04T07:29:49;95482.38;;;2.48;100.00
10093;BME280;5085;48.092;11.484;2023-03-04T07:32:15;95493.88;;;2.67;100.00
10093;BME280;5085;48.092;11.484;2023-03-04T07:34:44;95489.66;;;2.84;100.00
10093;BME280;5085;48.092;11.484;2023-03-04T07:37:11;95494.56;;;3.06;100.00
10093;BME280;5085;48.092;11.484;2023-03-04T07:39:37;95494.63;;;3.24;100.00
10093;BME280;5085;48.092;11.484;2023-03-04T07:42:03;95496.63;;;3.47;100.00
10093;BME280;5085;48.092;11.484;2023-03-04T07:44:29;95502.94;;;3.71;100.00
10093;BME280;5085;48.092;11.484;2023-03-04T07:46:57;95498.34;;;3.96;100.00
10093;BME280;5085;48.092;11.484;2023-03-04T07:49:24;95506.00;;;4.23;100.00
10093;BME280;5085;48.092;11.484;2023-03-04T07:51:51;95505.03;;;4.47;100.00
10093;BME280;5085;48.092;11.484;2023-03-04T07:54:17;95510.44;;;4.71;100.00
10093;BME280;5085;48.092;11.484;2023-03-04T07:56:45;95509.78;;;4.87;100.00
10093;BME280;5085;48.092;11.484;2023-03-04T07:59:11;95523.38;;;5.09;100.00
10093;BME280;5085;48.092;11.484;2023-03-04T08:01:37;95527.34;;;5.30;100.00
10093;BME280;5085;48.092;11.484;2023-03-04T08:04:05;95524.34;;;5.50;100.00
10093;BME280;5085;48.092;11.484;2023-03-04T08:06:32;95520.72;;;5.68;100.00
10093;BME280;5085;48.092;11.484;2023-03-04T08:09:01;95525.00;;;5.81;100.00
10093;BME280;5085;48.092;11.484;2023-03-04T08:11:29;95526.66;;;5.93;100.00
10093;BME280;5085;48.092;11.484;2023-03-04T08:13:56;95526.03;;;6.03;100.00
10093;BME280;5085;48.092;11.484;2023-03-04T08:16:23;95536.59;;;6.10;100.00
10093;BME280;5085;48.092;11.484;2023-03-04T08:18:51;95525.31;;;6.19;100.00
10093;BME280;5085;48.092;11.484;2023-03-04T08:21:18;95532.81;;;6.34;100.00
10093;BME280;5085;48.092;11.484;2023-03-04T08:23:46;95531.34;;;6.55;100.00
10093;BME280;5085;48.092;11.484;2023-03-04T08:26:22;95538.31;;;6.85;100.00
10093;BME280;5085;48.092;11.484;2023-03-04T08:28:48;95536.41;;;7.14;98.97
10093;BME280;5085;48.092;11.484;2023-03-04T08:31:16;95534.75;;;7.30;94.98
10093;BME280;5085;48.092;11.484;2023-03-04T08:33:42;95532.50;;;7.38;94.80
10093;BME280;5085;48.092;11.484;2023-03-04T08:36:09;95536.56;;;7.41;93.99
10093;BME280;5085;48.092;11.484;2023-03-04T08:38:36;95528.78;;;7.39;91.54
10093;BME280;5085;48.092;11.484;2023-03-04T08:41:02;95528.91;;;7.49;93.23
10093;BME280;5085;48.092;11.484;2023-03-04T08:43:29;95528.66;;;7.68;90.63
10093;BME280;5085;48.092;11.484;2023-03-04T08:45:56;95518.34;;;7.98;88.97
10093;BME280;5085;48.092;11.484;2023-03-04T08:48:22;95533.09;;;8.40;85.48
10093;BME280;5085;48.092;11.484;2023-03-04T08:50:49;95523.81;;;8.74;80.92
10093;BME280;5085;48.092;11.484;2023-03-04T08:53:15;95526.28;;;9.08;77.27
10093;BME280;5085;48.092;11.484;2023-03-04T08:55:42;95528.13;;;9.35;76.05
10093;BME280;5085;48.092;11.484;2023-03-04T08:58:11;95527.25;;;9.61;74.24
10093;BME280;5085;48.092;11.484;2023-03-04T09:00:39;95525.06;;;10.00;72.11
10093;BME280;5085;48.092;11.484;2023-03-04T09:03:09;95530.00;;;10.19;67.45
10093;BME280;5085;48.092;11.484;2023-03-04T09:05:36;95527.88;;;10.21;64.05
10093;BME280;5085;48.092;11.484;2023-03-04T09:08:08;95529.31;;;10.34;63.34
10093;BME280;5085;48.092;11.484;2023-03-04T09:10:34;95540.19;;;10.64;61.56
10093;BME280;5085;48.092;11.484;2023-03-04T09:13:00;95525.44;;;10.97;59.42
10093;BME280;5085;48.092;11.484;2023-03-04T09:15:26;95532.75;;;11.38;57.75
10093;BME280;5085;48.092;11.484;2023-03-04T09:17:55;95526.53;;;11.88;55.89
10093;BME280;5085;48.092;11.484;2023-03-04T09:20:22;95521.59;;;12.21;54.01
10093;BME280;5085;48.092;11.484;2023-03-04T09:22:48;95514.47;;;12.50;52.47
10093;BME280;5085;48.092;11.484;2023-03-04T09:25:15;95518.91;;;12.81;51.46
10093;BME280;5085;48.092;11.484;2023-03-04T09:27:41;95509.25;;;13.14;51.39
10093;BME280;5085;48.092;11.484;2023-03-04T09:30:07;95507.44;;;13.43;51.01
10093;BME280;5085;48.092;11.484;2023-03-04T09:32:33;95504.59;;;13.88;48.94
10093;BME280;5085;48.092;11.484;2023-03-04T09:35:00;95511.72;;;14.08;47.81
10093;BME280;5085;48.092;11.484;2023-03-04T09:37:26;95503.22;;;14.14;46.46
10093;BME280;5085;48.092;11.484;2023-03-04T09:39:52;95509.34;;;14.25;46.78
10093;BME280;5085;48.092;11.484;2023-03-04T09:42:35;95511.00;;;14.50;46.04
10093;BME280;5085;48.092;11.484;2023-03-04T09:45:04;95505.97;;;14.81;45.80
10093;BME280;5085;48.092;11.484;2023-03-04T09:47:33;95507.38;;;15.16;44.84
10093;BME280;5085;48.092;11.484;2023-03-04T09:50:06;95507.13;;;15.69;43.98
10093;BME280;5085;48.092;11.484;2023-03-04T09:55:21;95511.00;;;16.10;41.91
10093;BME280;5085;48.092;11.484;2023-03-04T10:00:48;95500.47;;;16.49;40.84
10093;BME280;5085;48.092;11.484;2023-03-04T10:03:18;95504.41;;;16.57;40.85
10093;BME280;5085;48.092;11.484;2023-03-04T10:05:52;95502.97;;;16.73;40.92
10093;BME280;5085;48.092;11.484;2023-03-04T10:10:53;95493.28;;;17.31;39.32
10093;BME280;5085;48.092;11.484;2023-03-04T10:13:28;95498.13;;;17.57;38.44
10093;BME280;5085;48.092;11.484;2023-03-04T10:15:58;95491.06;;;17.78;38.37
10093;BME280;5085;48.092;11.484;2023-03-04T10:18:38;95485.94;;;18.08;37.51
10093;BME280;5085;48.092;11.484;2023-03-04T10:23:33;95481.88;;;18.76;35.85
10093;BME280;5085;48.092;11.484;2023-03-04T10:26:11;95491.88;;;18.98;35.12
10093;BME280;5085;48.092;11.484;2023-03-04T10:28:38;95474.25;;;19.21;34.28
10093;BME280;5085;48.092;11.484;2023-03-04T10:33:35;95479.25;;;19.63;33.50
10093;BME280;5085;48.092;11.484;2023-03-04T10:36:22;95471.78;;;19.89;33.34
10093;BME280;5085;48.092;11.484;2023-03-04T10:39:11;95469.06;;;20.36;32.47
10093;BME280;5085;48.092;11.484;2023-03-04T10:41:42;95475.00;;;20.97;32.25
10093;BME280;5085;48.092;11.484;2023-03-04T10:44:16;95470.66;;;21.47;31.66
10093;BME280;5085;48.092;11.484;2023-03-04T10:46:45;95464.44;;;21.59;30.21
10093;BME280;5085;48.092;11.484;2023-03-04T10:49:13;95462.66;;;21.75;30.99
10093;BME280;5085;48.092;11.484;2023-03-04T10:51:50;95454.47;;;22.00;30.60
10093;BME280;5085;48.092;11.484;2023-03-04T10:56:56;95457.69;;;22.02;29.95
10093;BME280;5085;48.092;11.484;2023-03-04T10:59:39;95455.53;;;22.07;29.35
10093;BME280;5085;48.092;11.484;2023-03-04T11:07:26;95446.03;;;21.92;29.87
10093;BME280;5085;48.092;11.484;2023-03-04T11:10:07;95445.91;;;21.89;30.08
10093;BME280;5085;48.092;11.484;2023-03-04T11:12:33;95444.69;;;22.11;29.81
10093;BME280;5085;48.092;11.484;2023-03-04T11:15:01;95448.06;;;21.95;30.61
10093;BME280;5085;48.092;11.484;2023-03-04T11:17:44;95442.72;;;21.66;30.61
10093;BME280;5085;48.092;11.484;2023-03-04T11:20:44;95445.91;;;21.56;30.07
10093;BME280;5085;48.092;11.484;2023-03-04T11:23:16;95441.94;;;21.65;30.00
10093;BME280;5085;48.092;11.484;2023-03-04T11:25:49;95446.78;;;21.81;30.05
10093;BME280;5085;48.092;11.484;2023-03-04T11:28:21;95444.91;;;22.06;29.91
10093;BME280;5085;48.092;11.484;2023-03-04T11:31:03;95437.56;;;21.85;30.40
10093;BME280;5085;48.092;11.484;2023-03-04T11:33:45;95441.25;;;22.02;30.53
10093;BME280;5085;48.092;11.484;2023-03-04T11:36:37;95441.75;;;22.16;29.72
10093;BME280;5085;48.092;11.484;2023-03-04T11:39:38;95437.59;;;21.98;29.88
10093;BME280;5085;48.092;11.484;2023-03-04T11:44:41;95434.56;;;20.14;31.65
10093;BME280;5085;48.092;11.484;2023-03-04T11:47:28;95430.16;;;20.31;32.42
10093;BME280;5085;48.092;11.484;2023-03-04T11:50:27;95431.84;;;20.44;32.26
10093;BME280;5085;48.092;11.484;2023-03-04T11:53:19;95423.47;;;20.11;32.18
10093;BME280;5085;48.092;11.484;2023-03-04T11:56:12;95419.09;;;20.18;32.47
10093;BME280;5085;48.092;11.484;2023-03-04T12:01:34;95426.53;;;19.19;33.19
10093;BME280;5085;48.092;11.484;2023-03-04T12:04:25;95421.84;;;19.71;33.03
10093;BME280;5085;48.092;11.484;2023-03-04T12:10:45;95415.00;;;20.33;31.40
10093;BME280;5085;48.092;11.484;2023-03-04T12:21:43;95401.53;;;19.81;32.46
10093;BME280;5085;48.092;11.484;2023-03-04T12:27:53;95395.06;;;20.83;30.33
10093;BME280;5085;48.092;11.484;2023-03-04T12:33:32;95368.50;;;21.59;29.65
10093;BME280;5085;48.092;11.484;2023-03-04T12:38:59;95371.09;;;22.13;29.02
10093;BME280;5085;48.092;11.484;2023-03-04T12:41:41;95364.31;;;22.71;28.36
10093;BME280;5085;48.092;11.484;2023-03-04T12:44:21;95361.31;;;23.29;27.71
10093;BME280;5085;48.092;11.484;2023-03-04T12:52:43;95354.78;;;23.93;27.18
10093;BME280;5085;48.092;11.484;2023-03-04T12:55:22;95356.09;;;24.15;26.49
10093;BME280;5085;48.092;11.484;2023-03-04T12:57:53;95354.84;;;24.29;26.68
10093;BME280;5085;48.092;11.484;2023-03-04T13:06:48;95348.88;;;23.63;26.98
10093;BME280;5085;48.092;11.484;2023-03-04T13:09:28;95346.03;;;23.60;26.94
10093;BME280;5085;48.092;11.484;2023-03-04T13:12:18;95339.28;;;22.61;27.50
10093;BME280;5085;48.092;11.484;2023-03-04T13:17:43;95326.25;;;22.45;28.27
10093;BME280;5085;48.092;11.484;2023-03-04T13:25:44;95323.44;;;21.35;29.68
10093;BME280;5085;48.092;11.484;2023-03-04T13:28:21;95321.25;;;19.47;31.92
10093;BME280;5085;48.092;11.484;2023-03-04T13:41:22;95313.66;;;13.71;42.60
10093;BME280;5085;48.092;11.484;2023-03-04T13:43:57;95320.13;;;13.28;44.28
10093;BME280;5085;48.092;11.484;2023-03-04T13:53:52;95307.97;;;15.46;40.66
10093;BME280;5085;48.092;11.484;2023-03-04T13:59:42;95312.50;;;15.79;40.42
10093;BME280;5085;48.092;11.484;2023-03-04T14:02:13;95311.00;;;16.72;38.33
10093;BME280;5085;48.092;11.484;2023-03-04T14:04:43;95303.97;;;17.65;37.38
10093;BME280;5085;48.092;11.484;2023-03-04T14:07:29;95315.22;;;18.20;36.18
10093;BME280;5085;48.092;11.484;2023-03-04T14:10:04;95310.13;;;18.36;35.44
10093;BME280;5085;48.092;11.484;2023-03-04T14:12:35;95303.69;;;18.23;35.87
10093;BME280;5085;48.092;11.484;2023-03-04T14:15:04;95306.06;;;18.08;35.69
10093;BME280;5085;48.092;11.484;2023-03-04T14:17:34;95301.19;;;17.87;36.11
10093;BME280;5085;48.092;11.484;2023-03-04T14:20:23;95296.00;;;17.68;36.49
10093;BME280;5085;48.092;11.484;2023-03-04T14:22:50;95296.63;;;17.65;36.67
10093;BME280;5085;48.092;11.484;2023-03-04T14:25:25;95296.72;;;17.52;36.82
10093;BME280;5085;48.092;11.484;2023-03-04T14:28:15;95282.91;;;17.39;37.00
10093;BME280;5085;48.092;11.484;2023-03-04T14:30:59;95290.19;;;17.21;37.01
10093;BME280;5085;48.092;11.484;2023-03-04T14:33:27;95288.56;;;16.89;37.48
10093;BME280;5085;48.092;11.484;2023-03-04T14:36:04;95278.28;;;16.41;37.91
10093;BME280;5085;48.092;11.484;2023-03-04T14:38:39;95279.81;;;15.56;39.45
10093;BME280;5085;48.092;11.484;2023-03-04T14:44:31;95281.88;;;14.01;43.29
10093;BME280;5085;48.092;11.484;2023-03-04T14:47:18;95282.13;;;13.14;44.06
10093;BME280;5085;48.092;11.484;2023-03-04T14:49:52;95284.50;;;12.28;46.26